sensor_id;sensor_type;location;lat;lon;timestamp;P1;durP1;ratioP1;P2;durP2;ratioP2
34234;SDS011;20500;49.856;20.290;2022-07-23T00:02:26;14.20;;;9.80;;
34234;SDS011;20500;49.856;20.290;2022-07-23T00:05:32;16.40;;;10.00;;
34234;SDS011;20500;49.856;20.290;2022-07-23T00:08:39;15.80;;;10.00;;
34234;SDS011;20500;49.856;20.290;2022-07-23T00:11:45;18.10;;;10.50;;
34234;SDS011;20500;49.856;20.290;2022-07-23T00:14:50;15.40;;;11.10;;
34234;SDS011;20500;49.856;20.290;2022-07-23T00:17:55;16.20;;;10.90;;
34234;SDS011;20500;49.856;20.290;2022-07-23T00:21:01;16.10;;;11.50;;
34234;SDS011;20500;49.856;20.290;2022-07-23T00:27:11;18.20;;;11.80;;
34234;SDS011;20500;49.856;20.290;2022-07-23T00:30:16;16.50;;;10.90;;
34234;SDS011;20500;49.856;20.290;2022-07-23T00:33:22;16.40;;;10.40;;
34234;SDS011;20500;49.856;20.290;2022-07-23T00:36:27;17.40;;;10.70;;
34234;SDS011;20500;49.856;20.290;2022-07-23T00:39:33;16.80;;;11.00;;
34234;SDS011;20500;49.856;20.290;2022-07-23T00:42:39;14.50;;;10.30;;
34234;SDS011;20500;49.856;20.290;2022-07-23T00:48:49;16.90;;;10.60;;
34234;SDS011;20500;49.856;20.290;2022-07-23T00:51:55;14.10;;;10.00;;
34234;SDS011;20500;49.856;20.290;2022-07-23T00:55:01;16.10;;;10.80;;
34234;SDS011;20500;49.856;20.290;2022-07-23T00:58:08;15.50;;;10.70;;
34234;SDS011;20500;49.856;20.290;2022-07-23T01:01:15;16.30;;;11.00;;
34234;SDS011;20500;49.856;20.290;2022-07-23T01:04:20;16.50;;;10.10;;
34234;SDS011;20500;49.856;20.290;2022-07-23T01:07:26;15.00;;;10.40;;
34234;SDS011;20500;49.856;20.290;2022-07-23T01:10:32;15.50;;;10.20;;
34234;SDS011;20500;49.856;20.290;2022-07-23T01:13:37;15.30;;;11.10;;
34234;SDS011;20500;49.856;20.290;2022-07-23T01:16:46;15.90;;;10.30;;
34234;SDS011;20500;49.856;20.290;2022-07-23T01:19:52;18.50;;;10.90;;
34234;SDS011;20500;49.856;20.290;2022-07-23T01:22:58;15.30;;;10.80;;
34234;SDS011;20500;49.856;20.290;2022-07-23T01:26:03;15.50;;;10.30;;
34234;SDS011;20500;49.856;20.290;2022-07-23T01:29:13;16.50;;;9.90;;
34234;SDS011;20500;49.856;20.290;2022-07-23T01:32:19;15.40;;;10.70;;
34234;SDS011;20500;49.856;20.290;2022-07-23T01:35:25;15.50;;;10.50;;
34234;SDS011;20500;49.856;20.290;2022-07-23T01:38:30;13.90;;;9.30;;
34234;SDS011;20500;49.856;20.290;2022-07-23T01:41:35;14.80;;;10.50;;
34234;SDS011;20500;49.856;20.290;2022-07-23T01:44:41;16.60;;;10.80;;
34234;SDS011;20500;49.856;20.290;2022-07-23T01:47:47;16.80;;;10.10;;
34234;SDS011;20500;49.856;20.290;2022-07-23T01:50:53;14.20;;;10.30;;
34234;SDS011;20500;49.856;20.290;2022-07-23T01:53:58;15.40;;;10.30;;
34234;SDS011;20500;49.856;20.290;2022-07-23T01:57:05;15.20;;;10.00;;
34234;SDS011;20500;49.856;20.290;2022-07-23T02:00:12;15.20;;;9.70;;
34234;SDS011;20500;49.856;20.290;2022-07-23T02:03:18;15.40;;;10.00;;
34234;SDS011;20500;49.856;20.290;2022-07-23T02:06:24;15.30;;;10.20;;
34234;SDS011;20500;49.856;20.290;2022-07-23T02:09:29;16.40;;;9.70;;
34234;SDS011;20500;49.856;20.290;2022-07-23T02:12:35;14.90;;;10.30;;
34234;SDS011;20500;49.856;20.290;2022-07-23T02:15:41;14.00;;;9.90;;
34234;SDS011;20500;49.856;20.290;2022-07-23T02:18:46;17.30;;;10.50;;
34234;SDS011;20500;49.856;20.290;2022-07-23T02:21:53;14.10;;;10.20;;
34234;SDS011;20500;49.856;20.290;2022-07-23T02:24:58;15.00;;;9.90;;
34234;SDS011;20500;49.856;20.290;2022-07-23T02:28:04;15.00;;;10.50;;
34234;SDS011;20500;49.856;20.290;2022-07-23T02:31:10;15.90;;;10.40;;
34234;SDS011;20500;49.856;20.290;2022-07-23T02:34:15;14.10;;;10.60;;
34234;SDS011;20500;49.856;20.290;2022-07-23T02:37:21;15.40;;;10.40;;
34234;SDS011;20500;49.856;20.290;2022-07-23T02:40:26;15.20;;;9.90;;
34234;SDS011;20500;49.856;20.290;2022-07-23T02:43:31;14.60;;;9.50;;
34234;SDS011;20500;49.856;20.290;2022-07-23T02:46:37;15.10;;;10.30;;
34234;SDS011;20500;49.856;20.290;2022-07-23T02:49:42;15.10;;;10.00;;
34234;SDS011;20500;49.856;20.290;2022-07-23T02:52:48;14.40;;;9.70;;
34234;SDS011;20500;49.856;20.290;2022-07-23T02:55:53;13.80;;;9.70;;
34234;SDS011;20500;49.856;20.290;2022-07-23T02:58:58;14.40;;;9.50;;
34234;SDS011;20500;49.856;20.290;2022-07-23T03:02:04;15.40;;;10.10;;
34234;SDS011;20500;49.856;20.290;2022-07-23T03:05:10;16.40;;;10.70;;
34234;SDS011;20500;49.856;20.290;2022-07-23T03:08:15;15.10;;;10.00;;
34234;SDS011;20500;49.856;20.290;2022-07-23T03:11:20;14.70;;;9.70;;
34234;SDS011;20500;49.856;20.290;2022-07-23T03:14:26;16.30;;;10.30;;
34234;SDS011;20500;49.856;20.290;2022-07-23T03:17:31;14.90;;;9.70;;
34234;SDS011;20500;49.856;20.290;2022-07-23T03:20:37;15.60;;;10.20;;
34234;SDS011;20500;49.856;20.290;2022-07-23T03:23:42;16.80;;;10.20;;
34234;SDS011;20500;49.856;20.290;2022-07-23T03:26:47;24.30;;;20.20;;
34234;SDS011;20500;49.856;20.290;2022-07-23T03:29:53;25.50;;;19.90;;
34234;SDS011;20500;49.856;20.290;2022-07-23T03:33:00;19.50;;;14.20;;
34234;SDS011;20500;49.856;20.290;2022-07-23T03:36:07;16.40;;;10.60;;
34234;SDS011;20500;49.856;20.290;2022-07-23T03:39:15;15.60;;;10.30;;
34234;SDS011;20500;49.856;20.290;2022-07-23T03:42:20;16.00;;;10.70;;
34234;SDS011;20500;49.856;20.290;2022-07-23T03:45:26;15.00;;;10.00;;
34234;SDS011;20500;49.856;20.290;2022-07-23T03:48:32;17.50;;;10.20;;
34234;SDS011;20500;49.856;20.290;2022-07-23T03:51:37;21.10;;;14.50;;
34234;SDS011;20500;49.856;20.290;2022-07-23T03:54:43;15.00;;;11.10;;
34234;SDS011;20500;49.856;20.290;2022-07-23T03:57:48;15.70;;;9.90;;
34234;SDS011;20500;49.856;20.290;2022-07-23T04:00:53;16.60;;;10.70;;
34234;SDS011;20500;49.856;20.290;2022-07-23T04:03:59;15.50;;;11.00;;
34234;SDS011;20500;49.856;20.290;2022-07-23T04:07:04;16.40;;;11.40;;
34234;SDS011;20500;49.856;20.290;2022-07-23T04:10:10;16.10;;;11.80;;
34234;SDS011;20500;49.856;20.290;2022-07-23T04:13:15;18.80;;;13.60;;
34234;SDS011;20500;49.856;20.290;2022-07-23T04:16:21;15.80;;;10.20;;
34234;SDS011;20500;49.856;20.290;2022-07-23T04:19:26;14.00;;;9.40;;
34234;SDS011;20500;49.856;20.290;2022-07-23T04:22:32;17.20;;;10.50;;
34234;SDS011;20500;49.856;20.290;2022-07-23T04:25:38;17.20;;;11.90;;
34234;SDS011;20500;49.856;20.290;2022-07-23T04:28:43;16.80;;;12.00;;
34234;SDS011;20500;49.856;20.290;2022-07-23T04:31:49;14.90;;;10.10;;
34234;SDS011;20500;49.856;20.290;2022-07-23T04:34:54;16.60;;;11.30;;
34234;SDS011;20500;49.856;20.290;2022-07-23T04:38:00;15.10;;;9.40;;
34234;SDS011;20500;49.856;20.290;2022-07-23T04:41:05;14.90;;;10.00;;
34234;SDS011;20500;49.856;20.290;2022-07-23T04:44:10;16.20;;;10.50;;
34234;SDS011;20500;49.856;20.290;2022-07-23T04:47:16;15.30;;;10.90;;
34234;SDS011;20500;49.856;20.290;2022-07-23T04:50:24;14.40;;;10.40;;
34234;SDS011;20500;49.856;20.290;2022-07-23T04:53:29;16.80;;;10.90;;
34234;SDS011;20500;49.856;20.290;2022-07-23T04:56:35;15.70;;;10.40;;
34234;SDS011;20500;49.856;20.290;2022-07-23T04:59:40;17.70;;;10.50;;
34234;SDS011;20500;49.856;20.290;2022-07-23T05:02:46;16.20;;;10.50;;
34234;SDS011;20500;49.856;20.290;2022-07-23T05:05:51;14.80;;;9.60;;
34234;SDS011;20500;49.856;20.290;2022-07-23T05:08:57;13.80;;;9.60;;
34234;SDS011;20500;49.856;20.290;2022-07-23T05:12:03;16.20;;;9.80;;
34234;SDS011;20500;49.856;20.290;2022-07-23T05:15:09;14.50;;;10.00;;
34234;SDS011;20500;49.856;20.290;2022-07-23T05:18:15;17.40;;;10.50;;
34234;SDS011;20500;49.856;20.290;2022-07-23T05:21:20;16.00;;;10.40;;
34234;SDS011;20500;49.856;20.290;2022-07-23T05:24:26;14.20;;;9.40;;
34234;SDS011;20500;49.856;20.290;2022-07-23T05:27:31;13.50;;;9.20;;
34234;SDS011;20500;49.856;20.290;2022-07-23T05:30:36;14.10;;;9.10;;
34234;SDS011;20500;49.856;20.290;2022-07-23T05:33:42;12.90;;;8.90;;
34234;SDS011;20500;49.856;20.290;2022-07-23T05:36:47;13.60;;;9.10;;
34234;SDS011;20500;49.856;20.290;2022-07-23T05:39:52;14.30;;;8.70;;
34234;SDS011;20500;49.856;20.290;2022-07-23T05:42:58;15.30;;;8.20;;
34234;SDS011;20500;49.856;20.290;2022-07-23T05:49:08;15.10;;;8.20;;
34234;SDS011;20500;49.856;20.290;2022-07-23T05:52:13;13.50;;;8.40;;
34234;SDS011;20500;49.856;20.290;2022-07-23T05:55:19;13.60;;;8.50;;
34234;SDS011;20500;49.856;20.290;2022-07-23T05:58:24;12.80;;;8.30;;
34234;SDS011;20500;49.856;20.290;2022-07-23T06:01:29;15.80;;;8.40;;
34234;SDS011;20500;49.856;20.290;2022-07-23T06:04:35;13.60;;;8.00;;
34234;SDS011;20500;49.856;20.290;2022-07-23T06:07:40;12.80;;;8.00;;
34234;SDS011;20500;49.856;20.290;2022-07-23T06:13:50;12.70;;;8.00;;
34234;SDS011;20500;49.856;20.290;2022-07-23T06:16:55;13.30;;;8.60;;
34234;SDS011;20500;49.856;20.290;2022-07-23T06:20:02;14.20;;;8.10;;
34234;SDS011;20500;49.856;20.290;2022-07-23T06:23:08;13.00;;;8.30;;
34234;SDS011;20500;49.856;20.290;2022-07-23T06:26:14;14.30;;;8.90;;
34234;SDS011;20500;49.856;20.290;2022-07-23T06:29:20;12.80;;;8.40;;
34234;SDS011;20500;49.856;20.290;2022-07-23T06:32:25;14.70;;;8.90;;
34234;SDS011;20500;49.856;20.290;2022-07-23T06:35:31;12.60;;;8.10;;
34234;SDS011;20500;49.856;20.290;2022-07-23T06:38:37;12.90;;;8.70;;
34234;SDS011;20500;49.856;20.290;2022-07-23T06:41:43;13.00;;;7.80;;
34234;SDS011;20500;49.856;20.290;2022-07-23T06:44:52;12.40;;;7.80;;
34234;SDS011;20500;49.856;20.290;2022-07-23T06:47:58;14.10;;;8.20;;
34234;SDS011;20500;49.856;20.290;2022-07-23T06:51:05;12.60;;;8.10;;
34234;SDS011;20500;49.856;20.290;2022-07-23T06:54:10;13.10;;;7.70;;
34234;SDS011;20500;49.856;20.290;2022-07-23T07:00:20;14.40;;;8.60;;
34234;SDS011;20500;49.856;20.290;2022-07-23T07:03:25;12.80;;;8.90;;
34234;SDS011;20500;49.856;20.290;2022-07-23T07:09:34;15.20;;;8.90;;
34234;SDS011;20500;49.856;20.290;2022-07-23T07:12:40;14.80;;;8.40;;
34234;SDS011;20500;49.856;20.290;2022-07-23T07:18:50;15.90;;;8.90;;
34234;SDS011;20500;49.856;20.290;2022-07-23T07:21:55;14.30;;;8.60;;
34234;SDS011;20500;49.856;20.290;2022-07-23T07:25:01;13.00;;;8.40;;
34234;SDS011;20500;49.856;20.290;2022-07-23T07:28:13;12.20;;;8.10;;
34234;SDS011;20500;49.856;20.290;2022-07-23T07:31:18;13.20;;;8.50;;
34234;SDS011;20500;49.856;20.290;2022-07-23T07:34:24;12.30;;;7.80;;
34234;SDS011;20500;49.856;20.290;2022-07-23T07:37:30;14.00;;;8.30;;
34234;SDS011;20500;49.856;20.290;2022-07-23T07:40:35;12.70;;;7.60;;
34234;SDS011;20500;49.856;20.290;2022-07-23T07:43:41;12.60;;;8.00;;
34234;SDS011;20500;49.856;20.290;2022-07-23T07:46:46;12.80;;;7.10;;
34234;SDS011;20500;49.856;20.290;2022-07-23T07:49:52;11.80;;;7.30;;
34234;SDS011;20500;49.856;20.290;2022-07-23T07:52:58;12.80;;;7.10;;
34234;SDS011;20500;49.856;20.290;2022-07-23T07:56:04;12.00;;;7.10;;
34234;SDS011;20500;49.856;20.290;2022-07-23T07:59:10;13.40;;;7.10;;
34234;SDS011;20500;49.856;20.290;2022-07-23T08:02:17;13.80;;;7.00;;
34234;SDS011;20500;49.856;20.290;2022-07-23T08:05:23;13.30;;;6.90;;
34234;SDS011;20500;49.856;20.290;2022-07-23T08:08:30;13.30;;;7.10;;
34234;SDS011;20500;49.856;20.290;2022-07-23T08:11:35;13.20;;;7.50;;
34234;SDS011;20500;49.856;20.290;2022-07-23T08:14:41;13.00;;;7.30;;
34234;SDS011;20500;49.856;20.290;2022-07-23T08:17:47;13.30;;;7.20;;
34234;SDS011;20500;49.856;20.290;2022-07-23T08:20:53;12.40;;;7.60;;
34234;SDS011;20500;49.856;20.290;2022-07-23T08:23:59;11.60;;;7.60;;
34234;SDS011;20500;49.856;20.290;2022-07-23T08:27:05;12.30;;;7.50;;
34234;SDS011;20500;49.856;20.290;2022-07-23T08:30:11;14.00;;;7.60;;
34234;SDS011;20500;49.856;20.290;2022-07-23T08:33:17;13.90;;;7.70;;
34234;SDS011;20500;49.856;20.290;2022-07-23T08:36:36;13.10;;;7.60;;
34234;SDS011;20500;49.856;20.290;2022-07-23T08:39:41;12.20;;;7.80;;
34234;SDS011;20500;49.856;20.290;2022-07-23T08:42:48;13.00;;;7.50;;
34234;SDS011;20500;49.856;20.290;2022-07-23T08:45:54;18.00;;;7.60;;
34234;SDS011;20500;49.856;20.290;2022-07-23T08:49:03;13.40;;;8.00;;
34234;SDS011;20500;49.856;20.290;2022-07-23T08:52:08;12.80;;;7.90;;
34234;SDS011;20500;49.856;20.290;2022-07-23T08:55:14;13.30;;;8.00;;
34234;SDS011;20500;49.856;20.290;2022-07-23T08:58:21;12.20;;;8.10;;
34234;SDS011;20500;49.856;20.290;2022-07-23T09:01:30;12.70;;;8.10;;
34234;SDS011;20500;49.856;20.290;2022-07-23T09:04:35;13.80;;;8.00;;
34234;SDS011;20500;49.856;20.290;2022-07-23T09:11:10;12.30;;;7.20;;
34234;SDS011;20500;49.856;20.290;2022-07-23T09:14:17;13.80;;;7.70;;
34234;SDS011;20500;49.856;20.290;2022-07-23T09:17:41;14.60;;;7.70;;
34234;SDS011;20500;49.856;20.290;2022-07-23T09:20:47;14.50;;;11.20;;
34234;SDS011;20500;49.856;20.290;2022-07-23T09:23:55;15.40;;;12.70;;
34234;SDS011;20500;49.856;20.290;2022-07-23T09:27:04;12.40;;;7.60;;
34234;SDS011;20500;49.856;20.290;2022-07-23T09:30:10;12.70;;;7.10;;
34234;SDS011;20500;49.856;20.290;2022-07-23T09:33:16;14.30;;;7.40;;
34234;SDS011;20500;49.856;20.290;2022-07-23T09:36:29;16.70;;;12.10;;
34234;SDS011;20500;49.856;20.290;2022-07-23T09:39:34;18.60;;;15.30;;
34234;SDS011;20500;49.856;20.290;2022-07-23T09:42:40;13.80;;;8.50;;
34234;SDS011;20500;49.856;20.290;2022-07-23T09:49:22;12.20;;;7.50;;
34234;SDS011;20500;49.856;20.290;2022-07-23T09:52:28;13.90;;;7.80;;
34234;SDS011;20500;49.856;20.290;2022-07-23T09:55:37;13.70;;;7.60;;
34234;SDS011;20500;49.856;20.290;2022-07-23T09:58:44;11.20;;;7.40;;
34234;SDS011;20500;49.856;20.290;2022-07-23T10:01:51;12.00;;;7.00;;
34234;SDS011;20500;49.856;20.290;2022-07-23T10:04:59;11.80;;;6.90;;
34234;SDS011;20500;49.856;20.290;2022-07-23T10:08:05;11.60;;;7.20;;
34234;SDS011;20500;49.856;20.290;2022-07-23T10:11:14;12.10;;;7.30;;
34234;SDS011;20500;49.856;20.290;2022-07-23T10:14:20;12.90;;;7.40;;
34234;SDS011;20500;49.856;20.290;2022-07-23T10:17:26;13.60;;;7.40;;
34234;SDS011;20500;49.856;20.290;2022-07-23T10:20:33;13.30;;;6.80;;
34234;SDS011;20500;49.856;20.290;2022-07-23T10:23:39;13.00;;;6.60;;
34234;SDS011;20500;49.856;20.290;2022-07-23T10:26:53;11.00;;;7.00;;
34234;SDS011;20500;49.856;20.290;2022-07-23T10:30:09;13.40;;;8.20;;
34234;SDS011;20500;49.856;20.290;2022-07-23T10:33:23;12.40;;;7.20;;
34234;SDS011;20500;49.856;20.290;2022-07-23T10:36:39;11.70;;;7.00;;
34234;SDS011;20500;49.856;20.290;2022-07-23T10:43:12;11.50;;;7.20;;
34234;SDS011;20500;49.856;20.290;2022-07-23T10:46:24;10.80;;;6.90;;
34234;SDS011;20500;49.856;20.290;2022-07-23T10:49:34;11.30;;;7.60;;
34234;SDS011;20500;49.856;20.290;2022-07-23T10:52:40;11.90;;;7.10;;
34234;SDS011;20500;49.856;20.290;2022-07-23T10:56:06;12.50;;;7.20;;
34234;SDS011;20500;49.856;20.290;2022-07-23T10:59:17;14.30;;;8.00;;
34234;SDS011;20500;49.856;20.290;2022-07-23T11:02:23;11.80;;;7.10;;
34234;SDS011;20500;49.856;20.290;2022-07-23T11:05:40;12.50;;;7.40;;
34234;SDS011;20500;49.856;20.290;2022-07-23T11:08:47;12.40;;;8.00;;
34234;SDS011;20500;49.856;20.290;2022-07-23T11:12:33;11.30;;;6.80;;
34234;SDS011;20500;49.856;20.290;2022-07-23T11:15:46;14.10;;;7.60;;
34234;SDS011;20500;49.856;20.290;2022-07-23T11:19:11;12.40;;;7.40;;
34234;SDS011;20500;49.856;20.290;2022-07-23T11:22:20;12.10;;;7.20;;
34234;SDS011;20500;49.856;20.290;2022-07-23T11:25:39;10.80;;;7.00;;
34234;SDS011;20500;49.856;20.290;2022-07-23T11:28:45;12.60;;;7.60;;
34234;SDS011;20500;49.856;20.290;2022-07-23T11:31:53;12.80;;;7.30;;
34234;SDS011;20500;49.856;20.290;2022-07-23T11:35:00;12.60;;;7.00;;
34234;SDS011;20500;49.856;20.290;2022-07-23T11:38:07;12.80;;;7.80;;
34234;SDS011;20500;49.856;20.290;2022-07-23T11:41:17;13.70;;;6.90;;
34234;SDS011;20500;49.856;20.290;2022-07-23T11:44:26;13.20;;;7.20;;
34234;SDS011;20500;49.856;20.290;2022-07-23T11:47:32;12.10;;;7.70;;
34234;SDS011;20500;49.856;20.290;2022-07-23T11:50:37;12.00;;;7.00;;
34234;SDS011;20500;49.856;20.290;2022-07-23T11:53:44;12.60;;;7.70;;
34234;SDS011;20500;49.856;20.290;2022-07-23T11:56:55;11.70;;;7.40;;
34234;SDS011;20500;49.856;20.290;2022-07-23T12:00:03;12.30;;;7.40;;
34234;SDS011;20500;49.856;20.290;2022-07-23T12:03:13;19.40;;;14.30;;
34234;SDS011;20500;49.856;20.290;2022-07-23T12:06:19;10.90;;;7.50;;
34234;SDS011;20500;49.856;20.290;2022-07-23T12:09:25;13.60;;;7.90;;
34234;SDS011;20500;49.856;20.290;2022-07-23T12:12:36;13.40;;;8.00;;
34234;SDS011;20500;49.856;20.290;2022-07-23T12:15:42;13.30;;;7.30;;
34234;SDS011;20500;49.856;20.290;2022-07-23T12:18:50;12.50;;;7.50;;
34234;SDS011;20500;49.856;20.290;2022-07-23T12:21:56;12.70;;;7.80;;
34234;SDS011;20500;49.856;20.290;2022-07-23T12:25:02;14.60;;;7.20;;
34234;SDS011;20500;49.856;20.290;2022-07-23T12:28:11;11.20;;;7.30;;
34234;SDS011;20500;49.856;20.290;2022-07-23T12:31:17;14.90;;;10.10;;
34234;SDS011;20500;49.856;20.290;2022-07-23T12:34:31;11.60;;;8.10;;
34234;SDS011;20500;49.856;20.290;2022-07-23T12:37:37;14.30;;;8.70;;
34234;SDS011;20500;49.856;20.290;2022-07-23T12:40:44;14.20;;;8.60;;
34234;SDS011;20500;49.856;20.290;2022-07-23T12:43:51;11.40;;;7.60;;
34234;SDS011;20500;49.856;20.290;2022-07-23T12:46:56;15.40;;;7.70;;
34234;SDS011;20500;49.856;20.290;2022-07-23T12:50:02;11.80;;;7.30;;
34234;SDS011;20500;49.856;20.290;2022-07-23T12:53:10;14.10;;;7.80;;
34234;SDS011;20500;49.856;20.290;2022-07-23T12:56:28;13.30;;;7.90;;
34234;SDS011;20500;49.856;20.290;2022-07-23T12:59:34;13.10;;;7.90;;
34234;SDS011;20500;49.856;20.290;2022-07-23T13:02:45;12.60;;;7.40;;
34234;SDS011;20500;49.856;20.290;2022-07-23T13:05:51;13.90;;;7.60;;
34234;SDS011;20500;49.856;20.290;2022-07-23T13:08:57;12.00;;;7.60;;
34234;SDS011;20500;49.856;20.290;2022-07-23T13:12:05;11.90;;;7.80;;
34234;SDS011;20500;49.856;20.290;2022-07-23T13:15:13;11.60;;;6.90;;
34234;SDS011;20500;49.856;20.290;2022-07-23T13:18:19;12.00;;;7.70;;
34234;SDS011;20500;49.856;20.290;2022-07-23T13:21:26;12.70;;;7.30;;
34234;SDS011;20500;49.856;20.290;2022-07-23T13:24:32;13.00;;;7.80;;
34234;SDS011;20500;49.856;20.290;2022-07-23T13:27:41;12.80;;;7.40;;
34234;SDS011;20500;49.856;20.290;2022-07-23T13:30:46;12.30;;;7.60;;
34234;SDS011;20500;49.856;20.290;2022-07-23T13:33:53;11.60;;;7.20;;
34234;SDS011;20500;49.856;20.290;2022-07-23T13:36:59;14.10;;;7.20;;
34234;SDS011;20500;49.856;20.290;2022-07-23T13:40:05;12.60;;;7.70;;
34234;SDS011;20500;49.856;20.290;2022-07-23T13:43:20;12.50;;;7.80;;
34234;SDS011;20500;49.856;20.290;2022-07-23T13:46:27;12.40;;;7.40;;
34234;SDS011;20500;49.856;20.290;2022-07-23T13:49:33;12.20;;;7.80;;
34234;SDS011;20500;49.856;20.290;2022-07-23T13:52:39;12.40;;;7.50;;
34234;SDS011;20500;49.856;20.290;2022-07-23T13:55:45;11.40;;;7.80;;
34234;SDS011;20500;49.856;20.290;2022-07-23T13:58:51;11.70;;;7.90;;
34234;SDS011;20500;49.856;20.290;2022-07-23T14:01:58;12.00;;;8.00;;
34234;SDS011;20500;49.856;20.290;2022-07-23T14:05:22;11.80;;;7.30;;
34234;SDS011;20500;49.856;20.290;2022-07-23T14:08:28;13.40;;;7.70;;
34234;SDS011;20500;49.856;20.290;2022-07-23T14:11:33;12.50;;;7.90;;
34234;SDS011;20500;49.856;20.290;2022-07-23T14:14:40;12.30;;;7.80;;
34234;SDS011;20500;49.856;20.290;2022-07-23T14:17:47;13.00;;;8.30;;
34234;SDS011;20500;49.856;20.290;2022-07-23T14:20:55;13.70;;;7.90;;
34234;SDS011;20500;49.856;20.290;2022-07-23T14:24:00;12.30;;;8.00;;
34234;SDS011;20500;49.856;20.290;2022-07-23T14:27:08;13.20;;;8.30;;
34234;SDS011;20500;49.856;20.290;2022-07-23T14:30:14;13.10;;;8.10;;
34234;SDS011;20500;49.856;20.290;2022-07-23T14:33:25;13.00;;;8.30;;
34234;SDS011;20500;49.856;20.290;2022-07-23T14:36:30;13.30;;;8.20;;
34234;SDS011;20500;49.856;20.290;2022-07-23T14:39:36;13.10;;;7.90;;
34234;SDS011;20500;49.856;20.290;2022-07-23T14:42:41;14.40;;;8.90;;
34234;SDS011;20500;49.856;20.290;2022-07-23T14:45:48;14.10;;;8.50;;
34234;SDS011;20500;49.856;20.290;2022-07-23T14:48:54;15.80;;;8.90;;
34234;SDS011;20500;49.856;20.290;2022-07-23T14:52:01;15.30;;;8.80;;
34234;SDS011;20500;49.856;20.290;2022-07-23T14:55:08;16.10;;;9.60;;
34234;SDS011;20500;49.856;20.290;2022-07-23T14:58:13;14.10;;;8.80;;
34234;SDS011;20500;49.856;20.290;2022-07-23T15:01:20;13.10;;;8.80;;
34234;SDS011;20500;49.856;20.290;2022-07-23T15:04:28;14.80;;;8.70;;
34234;SDS011;20500;49.856;20.290;2022-07-23T15:07:39;13.40;;;8.40;;
34234;SDS011;20500;49.856;20.290;2022-07-23T15:10:45;14.10;;;8.80;;
34234;SDS011;20500;49.856;20.290;2022-07-23T15:13:51;13.40;;;8.90;;
34234;SDS011;20500;49.856;20.290;2022-07-23T15:16:56;14.00;;;8.90;;
34234;SDS011;20500;49.856;20.290;2022-07-23T15:20:02;23.60;;;10.70;;
34234;SDS011;20500;49.856;20.290;2022-07-23T15:23:10;16.60;;;10.00;;
34234;SDS011;20500;49.856;20.290;2022-07-23T15:26:17;15.20;;;9.40;;
34234;SDS011;20500;49.856;20.290;2022-07-23T15:29:22;12.50;;;8.50;;
34234;SDS011;20500;49.856;20.290;2022-07-23T15:32:28;12.50;;;8.90;;
34234;SDS011;20500;49.856;20.290;2022-07-23T15:35:33;14.00;;;9.30;;
34234;SDS011;20500;49.856;20.290;2022-07-23T15:38:39;13.90;;;10.20;;
34234;SDS011;20500;49.856;20.290;2022-07-23T15:41:45;15.90;;;8.20;;
34234;SDS011;20500;49.856;20.290;2022-07-23T15:47:55;15.20;;;10.40;;
34234;SDS011;20500;49.856;20.290;2022-07-23T15:51:01;15.30;;;8.00;;
34234;SDS011;20500;49.856;20.290;2022-07-23T15:54:07;12.70;;;7.70;;
34234;SDS011;20500;49.856;20.290;2022-07-23T15:57:13;13.70;;;7.10;;
34234;SDS011;20500;49.856;20.290;2022-07-23T16:00:21;12.80;;;6.90;;
34234;SDS011;20500;49.856;20.290;2022-07-23T16:03:27;14.90;;;7.40;;
34234;SDS011;20500;49.856;20.290;2022-07-23T16:06:35;13.90;;;7.10;;
34234;SDS011;20500;49.856;20.290;2022-07-23T16:09:43;12.30;;;6.30;;
34234;SDS011;20500;49.856;20.290;2022-07-23T16:15:53;12.20;;;6.80;;
34234;SDS011;20500;49.856;20.290;2022-07-23T16:22:03;13.00;;;7.60;;
34234;SDS011;20500;49.856;20.290;2022-07-23T16:25:09;12.60;;;7.30;;
34234;SDS011;20500;49.856;20.290;2022-07-23T16:28:15;12.00;;;7.30;;
34234;SDS011;20500;49.856;20.290;2022-07-23T16:31:20;13.20;;;7.30;;
34234;SDS011;20500;49.856;20.290;2022-07-23T16:34:26;12.80;;;7.50;;
34234;SDS011;20500;49.856;20.290;2022-07-23T16:37:32;14.00;;;6.80;;
34234;SDS011;20500;49.856;20.290;2022-07-23T16:40:37;11.20;;;5.80;;
34234;SDS011;20500;49.856;20.290;2022-07-23T16:43:43;11.70;;;6.70;;
34234;SDS011;20500;49.856;20.290;2022-07-23T16:46:50;13.10;;;7.40;;
34234;SDS011;20500;49.856;20.290;2022-07-23T16:49:55;11.80;;;6.80;;
34234;SDS011;20500;49.856;20.290;2022-07-23T16:53:00;13.30;;;7.00;;
34234;SDS011;20500;49.856;20.290;2022-07-23T16:56:07;11.80;;;6.50;;
34234;SDS011;20500;49.856;20.290;2022-07-23T16:59:14;14.00;;;7.30;;
34234;SDS011;20500;49.856;20.290;2022-07-23T17:02:19;14.20;;;7.70;;
34234;SDS011;20500;49.856;20.290;2022-07-23T17:05:24;15.10;;;7.30;;
34234;SDS011;20500;49.856;20.290;2022-07-23T17:08:30;14.90;;;9.00;;
34234;SDS011;20500;49.856;20.290;2022-07-23T17:11:35;17.50;;;11.90;;
34234;SDS011;20500;49.856;20.290;2022-07-23T17:14:41;17.00;;;11.80;;
34234;SDS011;20500;49.856;20.290;2022-07-23T17:17:46;18.30;;;11.20;;
34234;SDS011;20500;49.856;20.290;2022-07-23T17:20:53;16.90;;;10.60;;
34234;SDS011;20500;49.856;20.290;2022-07-23T17:23:58;16.50;;;10.30;;
34234;SDS011;20500;49.856;20.290;2022-07-23T17:27:04;14.80;;;8.50;;
34234;SDS011;20500;49.856;20.290;2022-07-23T17:30:11;15.00;;;8.90;;
34234;SDS011;20500;49.856;20.290;2022-07-23T17:33:18;16.00;;;9.30;;
34234;SDS011;20500;49.856;20.290;2022-07-23T17:36:23;13.70;;;8.50;;
34234;SDS011;20500;49.856;20.290;2022-07-23T17:39:29;13.50;;;8.50;;
34234;SDS011;20500;49.856;20.290;2022-07-23T17:42:34;13.30;;;8.60;;
34234;SDS011;20500;49.856;20.290;2022-07-23T17:45:41;14.20;;;8.80;;
34234;SDS011;20500;49.856;20.290;2022-07-23T17:48:48;16.70;;;10.90;;
34234;SDS011;20500;49.856;20.290;2022-07-23T17:51:53;16.30;;;9.40;;
34234;SDS011;20500;49.856;20.290;2022-07-23T17:54:59;14.00;;;9.40;;
34234;SDS011;20500;49.856;20.290;2022-07-23T17:58:04;14.00;;;9.50;;
34234;SDS011;20500;49.856;20.290;2022-07-23T18:01:10;18.70;;;15.10;;
34234;SDS011;20500;49.856;20.290;2022-07-23T18:04:15;20.40;;;16.70;;
34234;SDS011;20500;49.856;20.290;2022-07-23T18:07:21;16.40;;;12.20;;
34234;SDS011;20500;49.856;20.290;2022-07-23T18:10:27;15.30;;;10.00;;
34234;SDS011;20500;49.856;20.290;2022-07-23T18:13:33;15.10;;;10.50;;
34234;SDS011;20500;49.856;20.290;2022-07-23T18:16:39;14.90;;;11.10;;
34234;SDS011;20500;49.856;20.290;2022-07-23T18:22:49;15.40;;;10.60;;
34234;SDS011;20500;49.856;20.290;2022-07-23T18:25:55;16.00;;;10.50;;
34234;SDS011;20500;49.856;20.290;2022-07-23T18:29:00;15.30;;;10.60;;
34234;SDS011;20500;49.856;20.290;2022-07-23T18:32:07;14.40;;;10.90;;
34234;SDS011;20500;49.856;20.290;2022-07-23T18:38:16;16.20;;;10.90;;
34234;SDS011;20500;49.856;20.290;2022-07-23T18:41:22;15.00;;;11.20;;
34234;SDS011;20500;49.856;20.290;2022-07-23T18:44:28;17.20;;;11.10;;
34234;SDS011;20500;49.856;20.290;2022-07-23T18:50:38;14.80;;;10.30;;
34234;SDS011;20500;49.856;20.290;2022-07-23T18:53:43;17.50;;;12.00;;
34234;SDS011;20500;49.856;20.290;2022-07-23T19:00:00;15.40;;;10.30;;
34234;SDS011;20500;49.856;20.290;2022-07-23T19:03:07;13.90;;;10.40;;